Weather History for Omaha Offutt, NE

Change the Weather History Date:

Wednesday, May 22, 2013

  Actual Average Record
Temperature  
Mean Temperature 56 °F -  
Max Temperature 61 °F 72 °F 91 °F (2000)
Min Temperature 52 °F 53 °F 46 °F (2001)
Degree Days  
Heating Degree Days 8    
Growing Degree Days 6 (Base 50)    
Moisture  
Dew Point 51 °F    
Average Humidity 82    
Maximum Humidity 97    
Minimum Humidity 67    
Precipitation  
Precipitation 0.00 in - - ()
Sea Level Pressure  
Sea Level Pressure 29.82 in    
Wind  
Wind Speed 13 mph (WNW)    
Max Wind Speed 17 mph    
Max Gust Speed 24 mph    
Visibility 10 miles    
Events Rain    
Averages and records for this station are not official NWS values.
T = Trace of Precipitation, MM = Missing Value Source: NWS Daily Summary

Daily Weather History Graph

Daily Weather History Graph

Search for Another Location

Airport:

Trip Planner

Search our weather history database for the weather conditions in past years. The results will help you decide how hot, cold, wet, or windy it might be!

Date:

Astronomy

May. 22, 2013 Rise Set
Actual Time 5:59 AM CDT 8:41 PM CDT
Civil Twilight 5:27 AM CDT 9:14 PM CDT
Nautical Twilight 4:47 AM CDT 9:54 PM CDT
Astronomical Twilight 4:01 AM CDT 10:40 PM CDT
Moon 6:04 PM CDT (5/22) 4:05 AM CDT (5/22)
Length of Visible Light 15h 46m
Length of Day
14h 42m
Waxing Gibbous, 91% of the Moon is Illuminated
May 22
Waxing Gibbous
May 24
Full
May 31
Last Quarter
Jun 8
New
Jun 16
First Quarter

Hourly Weather History & Observations

Time (CDT) Temp. Dew Point Humidity Pressure Visibility Wind Dir Wind Speed Gust Speed Precip Events Conditions
12:58 AM 55.6 °F 49.8 °F 81% 29.74 in 10.0 mi WNW 9.2 mph - N/A   Overcast
1:58 AM 55.0 °F 49.6 °F 82% 29.75 in 10.0 mi NW 12.7 mph 19.6 mph N/A   Overcast
2:18 AM 53.6 °F 50.0 °F 88% 29.74 in 10.0 mi WNW 13.8 mph - N/A   Overcast
2:58 AM 53.6 °F 50.0 °F 88% 29.75 in 10.0 mi WNW 10.4 mph - N/A   Overcast
3:28 AM 53.6 °F 50.0 °F 88% 29.74 in 10.0 mi West 8.1 mph - N/A   Overcast
3:33 AM 53.6 °F 50.0 °F 88% 29.74 in 10.0 mi West 8.1 mph - N/A   Overcast
3:43 AM 53.6 °F 50.0 °F 88% 29.74 in 10.0 mi West 11.5 mph - N/A   Overcast
3:58 AM 53.6 °F 49.8 °F 87% 29.74 in 10.0 mi West 11.5 mph - N/A   Overcast
4:58 AM 53.1 °F 50.2 °F 90% 29.73 in 10.0 mi WNW 13.8 mph - N/A   Overcast
5:58 AM 52.7 °F 50.2 °F 91% 29.73 in 10.0 mi WNW 11.5 mph - N/A   Overcast
6:58 AM 53.1 °F 49.5 °F 88% 29.74 in 10.0 mi WNW 17.3 mph - N/A   Overcast
7:58 AM 54.1 °F 50.0 °F 86% 29.76 in 10.0 mi WNW 10.4 mph - N/A   Overcast
8:58 AM 54.7 °F 50.0 °F 84% 29.78 in 10.0 mi WNW 16.1 mph - N/A   Overcast
9:20 AM 55.4 °F 50.0 °F 82% 29.78 in 10.0 mi NW 15.0 mph - N/A Rain Light Rain
9:25 AM 55.4 °F 51.8 °F 88% 29.78 in 10.0 mi NW 16.1 mph - N/A   Light Drizzle
9:30 AM 55.4 °F 51.8 °F 88% 29.78 in 10.0 mi WNW 13.8 mph 21.9 mph N/A   Overcast
9:35 AM 55.4 °F 50.0 °F 82% 29.78 in 10.0 mi WNW 16.1 mph 21.9 mph N/A   Light Drizzle
9:44 AM 55.4 °F 50.0 °F 82% 29.79 in 10.0 mi WNW 12.7 mph - N/A   Overcast
9:53 AM 55.4 °F 50.0 °F 82% 29.79 in 10.0 mi WNW 15.0 mph - N/A Rain Light Rain
9:58 AM 55.2 °F 50.4 °F 84% 29.80 in 10.0 mi WNW 13.8 mph - 0.00 in   Light Drizzle
10:03 AM 55.4 °F 50.0 °F 82% 29.79 in 10.0 mi NW 15.0 mph - N/A   Overcast
10:58 AM 57.0 °F 50.0 °F 77% 29.81 in 10.0 mi NW 16.1 mph 23.0 mph 0.00 in   Overcast
11:58 AM 58.8 °F 50.0 °F 73% 29.83 in 10.0 mi NW 11.5 mph 20.7 mph N/A   Mostly Cloudy
12:47 PM 57.2 °F 50.0 °F 77% 29.83 in 10.0 mi West 15.0 mph - N/A   Mostly Cloudy
12:55 PM 57.2 °F 51.8 °F 82% 29.83 in 10.0 mi West 13.8 mph - N/A   Light Drizzle
12:58 PM 57.2 °F 51.8 °F 82% 29.84 in 10.0 mi West 11.5 mph - N/A   Light Drizzle
1:18 PM 57.2 °F 53.6 °F 88% 29.83 in 10.0 mi West 11.5 mph - N/A Rain Light Rain
1:23 PM 57.2 °F 53.6 °F 88% 29.84 in 10.0 mi West 11.5 mph - N/A Rain Light Rain
1:33 PM 57.2 °F 55.4 °F 94% 29.84 in 10.0 mi West 9.2 mph - N/A Rain Light Rain
1:40 PM 57.2 °F 53.6 °F 88% 29.83 in 10.0 mi West 15.0 mph - N/A   Mostly Cloudy
1:42 PM 57.2 °F 53.6 °F 88% 29.83 in 8.0 mi West 16.1 mph - N/A Rain Light Rain
1:58 PM 56.3 °F 55.6 °F 97% 29.84 in 9.0 mi WNW 12.7 mph - 0.00 in   Light Drizzle
1:59 PM 57.2 °F 55.4 °F 94% 29.83 in 10.0 mi WNW 15.0 mph - N/A   Mostly Cloudy
2:09 PM 59.0 °F 53.6 °F 82% 29.83 in 10.0 mi WNW 17.3 mph - N/A   Light Drizzle
2:17 PM 57.2 °F 53.6 °F 88% 29.83 in 10.0 mi WNW 13.8 mph - N/A   Mostly Cloudy
2:27 PM 57.2 °F 53.6 °F 88% 29.83 in 10.0 mi NW 13.8 mph - N/A   Mostly Cloudy
2:46 PM 59.0 °F 53.6 °F 82% 29.84 in 10.0 mi NW 15.0 mph 21.9 mph N/A Rain Light Rain
2:58 PM 56.1 °F 53.4 °F 91% 29.86 in 10.0 mi NW 16.1 mph 23.0 mph 0.00 in Rain Light Rain
2:59 PM 55.4 °F 53.6 °F 94% 29.84 in 10.0 mi NW 15.0 mph - N/A   Mostly Cloudy
3:04 PM 57.2 °F 53.6 °F 88% 29.84 in 10.0 mi WNW 15.0 mph - N/A   Mostly Cloudy
3:09 PM 59.0 °F 53.6 °F 82% 29.83 in 10.0 mi WNW 17.3 mph - N/A   Mostly Cloudy
3:19 PM 59.0 °F 51.8 °F 77% 29.83 in 10.0 mi WNW 16.1 mph 24.2 mph N/A   Mostly Cloudy
3:24 PM 59.0 °F 51.8 °F 77% 29.83 in 10.0 mi NW 13.8 mph - N/A   Mostly Cloudy
3:58 PM 61.9 °F 50.7 °F 67% 29.84 in 10.0 mi WNW 16.1 mph 23.0 mph 0.00 in   Scattered Clouds
4:08 PM 59.0 °F 50.0 °F 72% 29.83 in 10.0 mi WNW 12.7 mph - N/A   Mostly Cloudy
4:13 PM 59.0 °F 50.0 °F 72% 29.84 in 10.0 mi WNW 15.0 mph - N/A   Mostly Cloudy
4:58 PM 59.7 °F 50.2 °F 71% 29.85 in 10.0 mi NW 15.0 mph - N/A   Overcast
5:18 PM 59.0 °F 50.0 °F 72% 29.85 in 10.0 mi WNW 13.8 mph - N/A   Overcast
5:23 PM 59.0 °F 50.0 °F 72% 29.85 in 10.0 mi WNW 11.5 mph - N/A   Overcast
5:58 PM 58.8 °F 48.7 °F 69% 29.87 in 10.0 mi NW 12.7 mph 18.4 mph N/A   Overcast
6:58 PM 58.8 °F 48.2 °F 68% 29.89 in 10.0 mi NW 11.5 mph - N/A   Overcast
7:58 PM 58.5 °F 48.7 °F 70% 29.90 in 10.0 mi NNW 10.4 mph - N/A   Mostly Cloudy
8:58 PM 57.6 °F 47.7 °F 70% 29.93 in 10.0 mi NW 10.4 mph - N/A   Overcast
9:48 PM 57.2 °F 48.2 °F 72% 29.94 in 10.0 mi NW 10.4 mph - N/A   Overcast
9:58 PM 56.8 °F 48.6 °F 74% 29.95 in 10.0 mi NW 8.1 mph - N/A   Overcast
10:03 PM 57.2 °F 48.2 °F 72% 29.95 in 10.0 mi NW 8.1 mph - N/A   Overcast
10:58 PM 55.2 °F 50.0 °F 83% 29.97 in 10.0 mi WNW 8.1 mph - N/A   Overcast
11:58 PM 54.7 °F 50.0 °F 84% 29.99 in 10.0 mi NW 9.2 mph - N/A   Mostly Cloudy